Time;durP1;ratioP1;P1;durP2;ratioP2;P2;SDS_P1;SDS_P2;PMS_P1;PMS_P2;Temp;Humidity;BMP_temperature;BMP_pressure;BME280_temperature;BME280_humidity;BME280_pressure;Samples;Min_cycle;Max_cycle;Signal;HPM_P1;HPM_P2
2023/08/14 08:49:36;;;;;;;3.22;2.72;;;25.90;99.90;;;;;;5028631;23;20333;-40
2023/08/14 08:52:03;;;;;;;3.40;2.70;;;26.10;99.90;;;;;;4988303;28;20207;-40
2023/08/14 08:54:30;;;;;;;2.88;2.60;;;26.30;99.90;;;;;;4973308;28;20246;-38
2023/08/14 08:56:56;;;;;;;5.10;2.78;;;26.30;99.90;;;;;;4986010;28;20329;-40
2023/08/14 08:59:23;;;;;;;2.95;2.67;;;26.40;99.90;;;;;;5009996;23;20673;-34
2023/08/14 09:01:49;;;;;;;2.92;2.72;;;26.50;99.90;;;;;;4994897;28;20251;-35
2023/08/14 09:04:15;;;;;;;3.17;2.47;;;26.60;99.90;;;;;;4995870;28;20183;-35
2023/08/14 09:06:41;;;;;;;2.88;2.58;;;26.80;99.90;;;;;;4991971;28;20258;-37
2023/08/14 09:09:08;;;;;;;2.70;2.50;;;26.90;99.90;;;;;;4993621;28;20195;-35
2023/08/14 09:11:35;;;;;;;4.35;2.88;;;27.10;99.90;;;;;;4975759;28;20186;-33
2023/08/14 09:14:02;;;;;;;3.63;2.65;;;27.20;99.90;;;;;;4977950;28;20218;-34
2023/08/14 09:16:29;;;;;;;3.08;2.22;;;27.20;99.90;;;;;;4993566;28;20183;-34
2023/08/14 09:19:01;;;;;;;4.45;2.60;;;27.40;99.90;;;;;;4993748;28;20199;-35
2023/08/14 09:21:28;;;;;;;4.50;2.70;;;27.50;99.90;;;;;;5009955;28;20175;-34
2023/08/14 09:23:56;;;;;;;4.40;3.00;;;27.60;99.90;;;;;;4992085;28;20291;-35
2023/08/14 09:26:26;;;;;;;6.28;2.88;;;27.60;99.90;;;;;;4991285;28;20189;-36
2023/08/14 09:28:53;;;;;;;3.42;2.90;;;27.40;99.90;;;;;;4976366;28;20273;-34
2023/08/14 09:31:22;;;;;;;3.33;2.67;;;27.60;99.90;;;;;;4999745;28;20191;-35
2023/08/14 09:33:49;;;;;;;4.20;3.05;;;27.80;99.90;;;;;;4977124;28;20223;-35
2023/08/14 09:36:16;;;;;;;3.70;3.30;;;27.90;99.90;;;;;;4991823;28;20187;-37
2023/08/14 09:38:42;;;;;;;4.43;2.90;;;28.10;99.90;;;;;;4974382;28;20208;-35
2023/08/14 09:41:10;;;;;;;4.25;3.35;;;28.20;99.90;;;;;;4989436;28;20185;-34
2023/08/14 09:43:36;;;;;;;3.38;3.08;;;28.30;99.90;;;;;;5016377;28;20179;-35
2023/08/14 09:46:03;;;;;;;2.97;2.78;;;28.40;99.90;;;;;;4990542;28;20198;-35
2023/08/14 09:48:46;;;;;;;3.88;2.80;;;28.60;99.90;;;;;;4989602;28;20298;-35
2023/08/14 09:51:20;;;;;;;3.15;2.85;;;28.80;99.90;;;;;;4991337;28;20179;-35
2023/08/14 09:53:50;;;;;;;4.10;2.97;;;28.90;99.90;;;;;;5005780;28;20214;-35
2023/08/14 09:56:17;;;;;;;3.13;2.78;;;29.00;99.90;;;;;;4989506;28;20239;-35
2023/08/14 09:58:44;;;;;;;3.88;3.00;;;29.20;99.90;;;;;;4975153;28;20218;-35
2023/08/14 10:01:12;;;;;;;4.25;2.83;;;29.20;99.90;;;;;;5007662;28;20247;-37
2023/08/14 10:03:40;;;;;;;3.20;2.90;;;29.40;99.90;;;;;;4976701;28;20195;-36
2023/08/14 10:06:09;;;;;;;3.88;3.10;;;29.50;99.90;;;;;;4980553;28;20184;-35
2023/08/14 10:08:38;;;;;;;4.15;3.20;;;29.50;99.90;;;;;;5008446;28;20203;-35
2023/08/14 10:11:06;;;;;;;3.13;2.83;;;29.60;99.90;;;;;;4975989;28;20186;-36
2023/08/14 10:13:38;;;;;;;4.20;3.20;;;29.70;99.90;;;;;;5006348;28;20232;-36
2023/08/14 10:16:09;;;;;;;3.28;2.97;;;29.90;99.90;;;;;;4979595;28;20307;-36
2023/08/14 10:18:36;;;;;;;3.83;3.00;;;30.10;99.90;;;;;;4989577;28;20203;-34
2023/08/14 10:21:06;;;;;;;4.00;3.15;;;30.20;99.90;;;;;;5006290;28;20179;-35
2023/08/14 10:23:33;;;;;;;3.55;3.25;;;30.40;99.90;;;;;;4993194;28;20183;-35
2023/08/14 10:25:59;;;;;;;4.70;3.00;;;30.50;99.90;;;;;;4974642;28;20195;-34
2023/08/14 10:28:26;;;;;;;3.58;2.90;;;30.60;99.90;;;;;;4987021;28;20268;-35
2023/08/14 10:30:52;;;;;;;3.85;3.17;;;30.80;99.90;;;;;;4978186;28;20190;-35
2023/08/14 10:33:19;;;;;;;3.55;2.92;;;30.90;99.90;;;;;;4975242;28;20204;-35
2023/08/14 10:35:50;;;;;;;3.58;3.05;;;31.00;99.90;;;;;;4990117;28;20448;-35
2023/08/14 10:38:16;;;;;;;4.22;3.33;;;30.80;99.90;;;;;;4972567;28;20693;-34
2023/08/14 10:41:04;;;;;;;4.15;3.20;;;30.50;99.90;;;;;;4973814;28;20187;-35
2023/08/14 10:43:30;;;;;;;3.28;3.00;;;30.40;99.90;;;;;;4989125;28;20184;-36
2023/08/14 10:45:56;;;;;;;3.40;3.10;;;30.30;99.90;;;;;;4975660;28;20194;-35
2023/08/14 10:48:22;;;;;;;4.00;3.45;;;30.40;99.90;;;;;;4992640;28;20199;-35
2023/08/14 10:50:49;;;;;;;3.45;3.15;;;30.30;99.90;;;;;;4973410;28;20195;-36
2023/08/14 10:53:16;;;;;;;3.70;3.22;;;30.20;99.90;;;;;;5008658;28;20297;-36
2023/08/14 10:55:45;;;;;;;3.55;3.25;;;30.10;99.90;;;;;;4990951;28;20183;-35
2023/08/14 10:58:30;;;;;;;4.47;3.78;;;30.10;99.90;;;;;;4971850;28;20222;-36
2023/08/14 11:00:56;;;;;;;4.55;3.50;;;30.40;99.90;;;;;;4992604;28;20274;-36
2023/08/14 11:03:22;;;;;;;3.80;3.30;;;30.60;99.90;;;;;;4992381;28;20183;-34
2023/08/14 11:05:49;;;;;;;4.47;3.63;;;30.80;99.90;;;;;;4989940;28;20189;-35
2023/08/14 11:08:16;;;;;;;4.72;3.10;;;30.90;99.90;;;;;;4974799;28;20294;-34
2023/08/14 11:10:44;;;;;;;4.53;3.17;;;31.10;99.90;;;;;;4989319;28;20187;-35
2023/08/14 11:13:12;;;;;;;3.67;3.38;;;31.20;99.90;;;;;;4974285;28;20284;-37
2023/08/14 11:15:40;;;;;;;3.78;3.40;;;31.40;99.90;;;;;;4989460;28;20206;-34
2023/08/14 11:18:10;;;;;;;3.55;3.22;;;31.50;99.90;;;;;;4989788;28;20231;-36
2023/08/14 11:20:42;;;;;;;3.67;3.30;;;31.60;99.90;;;;;;4984323;28;20172;-35
2023/08/14 11:23:10;;;;;;;3.90;3.60;;;31.70;99.90;;;;;;4989164;28;20186;-36
2023/08/14 11:25:37;;;;;;;3.45;3.15;;;31.90;99.90;;;;;;4990808;28;20187;-34
2023/08/14 11:28:04;;;;;;;3.65;3.25;;;32.00;99.90;;;;;;4987781;28;20230;-34
2023/08/14 11:30:35;;;;;;;3.92;3.60;;;32.10;99.90;;;;;;5022398;28;20703;-36
2023/08/14 11:33:05;;;;;;;4.20;3.25;;;32.30;99.90;;;;;;4993307;28;20681;-35
2023/08/14 11:35:31;;;;;;;3.55;3.25;;;32.40;99.90;;;;;;4979293;28;20217;-36
2023/08/14 11:37:57;;;;;;;4.00;3.40;;;32.30;99.90;;;;;;4979626;28;20211;-34
2023/08/14 11:40:24;;;;;;;4.18;3.20;;;31.90;99.90;;;;;;5008949;28;20172;-37
2023/08/14 11:42:50;;;;;;;3.55;2.97;;;31.60;99.90;;;;;;4978382;28;20222;-34
2023/08/14 11:45:16;;;;;;;3.92;3.08;;;31.40;99.90;;;;;;4975248;28;20214;-35
2023/08/14 11:47:48;;;;;;;3.75;3.33;;;31.10;99.90;;;;;;4991593;28;20234;-34
2023/08/14 11:50:15;;;;;;;4.78;3.80;;;30.70;99.90;;;;;;5007019;28;20209;-34
2023/08/14 11:52:42;;;;;;;3.50;3.20;;;30.60;99.90;;;;;;4976125;28;20194;-34
2023/08/14 11:55:09;;;;;;;3.72;3.42;;;30.40;99.90;;;;;;4993056;28;20191;-34
2023/08/14 11:57:37;;;;;;;3.20;2.92;;;30.30;99.90;;;;;;5010353;28;20344;-34
2023/08/14 12:00:10;;;;;;;3.47;3.17;;;30.00;99.90;;;;;;4998365;28;20270;-35
2023/08/14 12:02:41;;;;;;;3.80;3.40;;;29.90;99.90;;;;;;5001309;28;20179;-34
2023/08/14 12:05:08;;;;;;;5.90;3.75;;;29.80;99.90;;;;;;5018603;28;20183;-35
2023/08/14 12:07:42;;;;;;;4.47;3.38;;;29.60;99.90;;;;;;4998907;28;20175;-35
2023/08/14 12:10:14;;;;;;;3.50;3.20;;;29.50;99.90;;;;;;4984689;28;20181;-35
2023/08/14 12:12:42;;;;;;;3.58;3.28;;;29.30;99.90;;;;;;5001360;28;20183;-35
2023/08/14 12:15:08;;;;;;;4.13;3.60;;;29.20;99.90;;;;;;4984030;28;20183;-34
2023/08/14 12:17:35;;;;;;;10.82;3.72;;;29.10;99.90;;;;;;4987335;28;20187;-34
2023/08/14 12:20:05;;;;;;;3.85;3.47;;;28.90;99.90;;;;;;4991636;28;20321;-35
2023/08/14 12:22:31;;;;;;;4.47;3.47;;;28.80;99.90;;;;;;4999160;28;20170;-34
2023/08/14 12:24:58;;;;;;;3.72;3.38;;;28.60;99.90;;;;;;5028683;28;20179;-34
2023/08/14 12:27:28;;;;;;;4.55;3.40;;;28.50;99.90;;;;;;5001665;28;20218;-34
2023/08/14 12:29:55;;;;;;;3.78;3.47;;;28.40;99.90;;;;;;4987513;28;20175;-35
2023/08/14 12:32:23;;;;;;;5.07;3.55;;;28.30;99.90;;;;;;4987345;28;20195;-34
2023/08/14 12:34:50;;;;;;;3.95;3.30;;;28.20;99.90;;;;;;5003127;28;20211;-34
2023/08/14 12:37:17;;;;;;;3.97;3.42;;;28.10;99.90;;;;;;4996103;28;20183;-34
2023/08/14 12:39:45;;;;;;;5.53;4.20;;;28.10;99.90;;;;;;5009666;28;20199;-34
2023/08/14 12:42:12;;;;;;;4.40;4.00;;;28.00;99.90;;;;;;4985953;28;20187;-34
2023/08/14 12:44:40;;;;;;;4.75;4.30;;;27.90;99.90;;;;;;5006105;28;20179;-34
2023/08/14 12:47:08;;;;;;;6.88;4.82;;;27.80;99.90;;;;;;4990077;28;20193;-34
2023/08/14 12:49:36;;;;;;;5.78;4.80;;;27.50;99.90;;;;;;4992381;28;20245;-34
2023/08/14 12:52:03;;;;;;;6.35;4.82;;;27.30;99.90;;;;;;4999234;28;20242;-35
2023/08/14 12:54:29;;;;;;;5.03;4.60;;;27.30;99.90;;;;;;4987353;28;20206;-35
2023/08/14 12:56:55;;;;;;;6.05;5.10;;;27.40;99.90;;;;;;4989768;28;20183;-34
2023/08/14 12:59:21;;;;;;;6.35;4.35;;;27.60;99.90;;;;;;4991128;28;20226;-34
2023/08/14 13:01:48;;;;;;;4.80;4.30;;;27.70;99.90;;;;;;4976009;28;20246;-34
2023/08/14 13:04:14;;;;;;;6.70;4.47;;;27.90;99.90;;;;;;4989916;28;20260;-34
2023/08/14 13:06:41;;;;;;;5.93;4.50;;;28.10;99.90;;;;;;4993724;28;20187;-33
2023/08/14 13:09:09;;;;;;;4.85;4.35;;;28.30;99.90;;;;;;4970187;28;20290;-34
2023/08/14 13:11:37;;;;;;;5.25;4.68;;;28.60;99.90;;;;;;5000680;28;20230;-33
2023/08/14 13:14:03;;;;;;;4.63;4.22;;;28.90;99.90;;;;;;4966403;28;20203;-33
2023/08/14 13:16:29;;;;;;;4.90;4.35;;;28.80;99.90;;;;;;4962418;28;20222;-33
2023/08/14 13:18:55;;;;;;;6.75;3.65;;;29.20;99.90;;;;;;4974904;28;20231;-33
2023/08/14 13:21:21;;;;;;;5.38;4.32;;;29.20;99.90;;;;;;4989064;28;20214;-34
2023/08/14 13:23:46;;;;;;;6.35;4.07;;;29.20;99.90;;;;;;4993065;28;20194;-33
2023/08/14 13:26:13;;;;;;;5.38;4.00;;;29.00;99.90;;;;;;4993305;28;20187;-33
2023/08/14 13:28:41;;;;;;;5.45;4.38;;;29.00;99.90;;;;;;5006413;28;20210;-33
2023/08/14 13:31:07;;;;;;;6.43;4.43;;;28.90;99.90;;;;;;4990535;28;20183;-33
2023/08/14 13:33:35;;;;;;;6.35;3.78;;;28.80;99.90;;;;;;4971023;28;20419;-33
2023/08/14 13:36:02;;;;;;;6.35;3.90;;;28.60;99.90;;;;;;4975396;28;20269;-33
2023/08/14 13:38:28;;;;;;;4.40;4.00;;;28.70;99.90;;;;;;4993112;28;20195;-33
2023/08/14 13:40:55;;;;;;;5.00;3.63;;;28.60;99.90;;;;;;4977425;28;20186;-33
2023/08/14 13:43:24;;;;;;;4.47;3.47;;;28.60;99.90;;;;;;4974484;28;20187;-34
2023/08/14 13:45:51;;;;;;;4.90;4.40;;;28.60;99.90;;;;;;4967401;28;20183;-33
2023/08/14 13:48:17;;;;;;;4.47;3.17;;;28.50;99.90;;;;;;4972835;28;20195;-33
2023/08/14 13:50:43;;;;;;;3.95;3.50;;;28.40;99.90;;;;;;4971457;28;20219;-33
2023/08/14 13:53:09;;;;;;;3.33;2.67;;;28.30;99.90;;;;;;4967485;28;20204;-33
2023/08/14 13:55:35;;;;;;;3.30;3.00;;;28.40;99.90;;;;;;4989313;28;20180;-33
2023/08/14 13:58:01;;;;;;;4.90;3.10;;;28.40;99.90;;;;;;4980190;28;20213;-33
2023/08/14 14:00:28;;;;;;;5.40;2.97;;;28.50;99.90;;;;;;4981248;28;20184;-33
2023/08/14 14:02:54;;;;;;;5.32;4.50;;;28.50;99.90;;;;;;4978736;28;20258;-33
2023/08/14 14:05:20;;;;;;;6.97;4.13;;;28.50;99.90;;;;;;4987815;28;20179;-33
2023/08/14 14:07:46;;;;;;;4.53;2.88;;;28.50;99.90;;;;;;4983329;28;20207;-33
2023/08/14 14:10:12;;;;;;;3.95;2.88;;;28.50;99.90;;;;;;4982523;28;20194;-34
2023/08/14 14:12:41;;;;;;;4.15;2.85;;;28.30;99.90;;;;;;4996301;28;20281;-35
2023/08/14 14:15:09;;;;;;;3.53;3.22;;;28.20;99.90;;;;;;4992678;28;20194;-34
2023/08/14 14:17:36;;;;;;;6.72;4.82;;;28.20;99.90;;;;;;4991967;28;20641;-34
2023/08/14 14:20:02;;;;;;;4.97;3.67;;;28.10;99.90;;;;;;4985044;28;20179;-34
2023/08/14 14:22:28;;;;;;;6.43;4.50;;;27.90;99.90;;;;;;4997785;28;20189;-34
2023/08/14 14:24:54;;;;;;;7.68;4.90;;;27.80;99.90;;;;;;4983915;28;20175;-34
2023/08/14 14:27:19;;;;;;;6.07;3.97;;;27.70;99.90;;;;;;4985513;28;20182;-34
2023/08/14 14:29:45;;;;;;;4.18;3.25;;;27.70;99.90;;;;;;4985792;28;20219;-34
2023/08/14 14:32:11;;;;;;;3.33;2.90;;;27.70;99.90;;;;;;4989376;28;20178;-34
2023/08/14 14:34:37;;;;;;;6.13;2.55;;;27.60;99.90;;;;;;4984512;28;20212;-34
2023/08/14 14:37:03;;;;;;;3.55;2.60;;;27.60;99.90;;;;;;4990413;28;20182;-34
2023/08/14 14:39:30;;;;;;;5.28;3.00;;;27.50;99.90;;;;;;5000052;28;20205;-34
2023/08/14 14:42:00;;;;;;;3.10;2.60;;;27.50;99.90;;;;;;5002746;28;20175;-34
2023/08/14 14:44:26;;;;;;;4.00;2.40;;;27.50;99.90;;;;;;4979174;28;20187;-34
2023/08/14 14:46:56;;;;;;;5.82;2.65;;;27.70;99.90;;;;;;4995951;28;20294;-34
2023/08/14 14:49:23;;;;;;;3.17;2.45;;;28.00;99.90;;;;;;5029692;28;20250;-34
2023/08/14 14:51:49;;;;;;;3.67;2.50;;;28.50;99.90;;;;;;5003761;28;20191;-35
2023/08/14 14:54:16;;;;;;;3.33;2.72;;;28.70;99.90;;;;;;4979762;28;20214;-34
2023/08/14 14:56:43;;;;;;;3.20;2.72;;;28.90;99.90;;;;;;4987954;28;20258;-34
2023/08/14 14:59:13;;;;;;;2.88;2.50;;;29.20;99.90;;;;;;5125250;23;20269;-42
2023/08/14 15:01:41;;;;;;;3.10;2.63;;;29.50;99.90;;;;;;4986211;28;20685;-41
2023/08/14 15:04:07;;;;;;;3.53;2.60;;;29.70;99.90;;;;;;4961875;28;20199;-41
2023/08/14 15:06:35;;;;;;;2.85;2.40;;;29.80;99.90;;;;;;4954994;28;20192;-41
2023/08/14 15:09:24;;;;;;;2.83;2.20;;;30.00;99.90;;;;;;4971055;28;20214;-41
2023/08/14 15:11:53;;;;;;;3.13;2.67;;;30.20;99.90;;;;;;5013415;28;20180;-42
2023/08/14 15:14:20;;;;;;;3.95;2.63;;;30.30;99.90;;;;;;4994520;28;20219;-41
2023/08/14 15:16:47;;;;;;;3.00;2.67;;;30.30;99.90;;;;;;4996196;28;20234;-41
2023/08/14 15:19:16;;;;;;;3.55;2.65;;;30.50;99.90;;;;;;4999502;28;20198;-40
2023/08/14 15:21:46;;;;;;;4.13;2.78;;;30.50;99.90;;;;;;4970229;28;20210;-41
2023/08/14 15:24:17;;;;;;;3.55;2.50;;;30.60;99.90;;;;;;4994873;28;20183;-41
2023/08/14 15:26:46;;;;;;;4.22;2.60;;;30.70;99.90;;;;;;5007724;28;20183;-40
2023/08/14 15:29:24;;;;;;;4.93;2.97;;;30.70;99.90;;;;;;4990993;28;20206;-41
2023/08/14 15:31:55;;;;;;;4.15;2.75;;;30.80;99.90;;;;;;4994662;28;20171;-41
2023/08/14 15:34:29;;;;;;;4.13;2.88;;;30.90;99.90;;;;;;5008529;28;20287;-41
2023/08/14 15:36:58;;;;;;;2.65;2.45;;;30.80;99.90;;;;;;4972161;28;20266;-41
2023/08/14 15:39:34;;;;;;;3.40;2.78;;;30.70;99.90;;;;;;4998055;28;20223;-41
2023/08/14 15:42:03;;;;;;;3.42;2.70;;;30.60;99.90;;;;;;4983453;28;20294;-41
2023/08/14 15:44:37;;;;;;;3.50;2.78;;;30.60;99.90;;;;;;4999056;28;20190;-41
2023/08/14 15:47:15;;;;;;;3.00;2.67;;;30.60;99.90;;;;;;5006608;28;20191;-41
2023/08/14 15:49:48;;;;;;;5.05;2.95;;;30.50;99.90;;;;;;4990468;28;20202;-41
2023/08/14 15:52:16;;;;;;;3.40;3.00;;;30.40;99.90;;;;;;4993550;28;20187;-42
2023/08/14 15:54:44;;;;;;;4.13;3.03;;;30.30;99.90;;;;;;4995448;28;20207;-41
2023/08/14 15:57:13;;;;;;;4.22;2.90;;;30.30;99.90;;;;;;4997511;28;20194;-41
2023/08/14 15:59:39;;;;;;;3.10;2.80;;;30.30;99.90;;;;;;4996787;28;20218;-40
2023/08/14 16:02:10;;;;;;;3.92;2.90;;;30.20;99.90;;;;;;4992590;28;20366;-42
2023/08/14 16:04:39;;;;;;;4.03;2.78;;;30.00;99.90;;;;;;5005847;28;20241;-42
2023/08/14 16:07:06;;;;;;;3.10;2.60;;;29.90;99.90;;;;;;5011365;28;20184;-41
2023/08/14 16:09:33;;;;;;;4.75;2.83;;;29.80;99.90;;;;;;4983332;28;20262;-40
2023/08/14 16:12:00;;;;;;;5.28;3.10;;;29.90;99.90;;;;;;4980394;28;20197;-41
2023/08/14 16:14:27;;;;;;;3.80;3.25;;;29.80;99.90;;;;;;4999513;28;20298;-41
2023/08/14 16:16:54;;;;;;;3.17;2.88;;;29.70;99.90;;;;;;5001382;28;20226;-41
2023/08/14 16:19:21;;;;;;;3.40;3.10;;;29.50;99.90;;;;;;4998735;28;20278;-41
2023/08/14 16:21:48;;;;;;;3.47;3.20;;;29.50;99.90;;;;;;5012502;28;20187;-41
2023/08/14 16:24:14;;;;;;;3.72;3.10;;;29.30;99.90;;;;;;5003487;28;20186;-41
2023/08/14 16:26:42;;;;;;;3.38;3.08;;;29.20;99.90;;;;;;5007735;28;20192;-41
2023/08/14 16:29:09;;;;;;;4.82;2.78;;;29.20;99.90;;;;;;5002901;28;20210;-41
2023/08/14 16:31:35;;;;;;;3.92;3.08;;;29.00;99.90;;;;;;4987661;28;20190;-41
2023/08/14 16:34:01;;;;;;;3.10;2.80;;;28.90;99.90;;;;;;5000634;28;20222;-42
2023/08/14 16:36:26;;;;;;;4.70;3.13;;;28.80;99.90;;;;;;4983459;28;20176;-40
2023/08/14 16:38:53;;;;;;;4.47;3.30;;;28.80;99.90;;;;;;4987124;28;20271;-41
2023/08/14 16:41:19;;;;;;;4.45;3.40;;;28.70;99.90;;;;;;5012202;28;20298;-41
2023/08/14 16:43:45;;;;;;;4.38;3.08;;;28.60;99.90;;;;;;5011262;28;20265;-41
2023/08/14 16:46:11;;;;;;;3.85;3.10;;;28.60;99.90;;;;;;4991637;28;20214;-41
2023/08/14 16:48:36;;;;;;;4.40;3.63;;;28.50;99.90;;;;;;5001701;28;20203;-40
2023/08/14 16:51:02;;;;;;;13.75;8.48;;;28.40;99.90;;;;;;5010453;28;20179;-41
2023/08/14 16:53:28;;;;;;;9.55;6.28;;;28.40;99.90;;;;;;4981281;28;20284;-41
2023/08/14 16:55:54;;;;;;;5.15;4.60;;;28.30;99.90;;;;;;5022196;28;20193;-40
2023/08/14 16:58:20;;;;;;;5.95;4.10;;;28.30;99.90;;;;;;4980980;28;20191;-41
2023/08/14 17:00:46;;;;;;;6.22;3.70;;;28.20;99.90;;;;;;4989055;28;20231;-41
2023/08/14 17:03:12;;;;;;;6.45;5.85;;;28.20;99.90;;;;;;5004113;28;20234;-41
2023/08/14 17:05:39;;;;;;;6.70;4.50;;;28.10;99.90;;;;;;4993465;28;20183;-42
2023/08/14 17:08:05;;;;;;;4.07;3.63;;;28.00;99.90;;;;;;4991092;28;20199;-41
2023/08/14 17:10:35;;;;;;;4.63;3.15;;;27.90;99.90;;;;;;4981494;28;20179;-41
2023/08/14 17:13:01;;;;;;;5.38;3.70;;;27.90;99.90;;;;;;4993098;28;20641;-41
2023/08/14 17:15:38;;;;;;;4.70;3.83;;;27.80;99.90;;;;;;4998001;28;20187;-41
2023/08/14 17:18:04;;;;;;;6.28;4.05;;;27.70;99.90;;;;;;5002652;28;20206;-41
2023/08/14 17:20:30;;;;;;;4.18;3.42;;;27.60;99.90;;;;;;4987573;28;20198;-41
2023/08/14 17:22:56;;;;;;;5.32;3.40;;;27.60;99.90;;;;;;4981677;28;20180;-40
2023/08/14 17:25:21;;;;;;;3.40;3.10;;;27.60;99.90;;;;;;4981301;28;20237;-42
2023/08/14 17:27:47;;;;;;;3.53;3.22;;;27.50;99.90;;;;;;4982073;28;20229;-39
2023/08/14 17:30:13;;;;;;;3.83;3.47;;;27.50;99.90;;;;;;5011916;28;20183;-41
2023/08/14 17:32:39;;;;;;;5.53;4.78;;;27.40;99.90;;;;;;4998586;28;20184;-41
2023/08/14 17:35:05;;;;;;;4.53;4.13;;;27.30;99.90;;;;;;4996585;28;20229;-40
2023/08/14 17:37:30;;;;;;;5.07;4.68;;;27.20;99.90;;;;;;4997096;28;20187;-41
2023/08/14 17:39:57;;;;;;;5.07;4.22;;;27.10;99.90;;;;;;4995571;28;20233;-39
2023/08/14 17:42:23;;;;;;;5.03;4.25;;;27.00;99.90;;;;;;5015410;28;20203;-41
2023/08/14 17:44:49;;;;;;;4.40;4.00;;;26.90;99.90;;;;;;4998652;28;20242;-40
2023/08/14 17:47:19;;;;;;;4.88;4.40;;;26.80;99.90;;;;;;5008428;28;20329;-41
2023/08/14 17:49:44;;;;;;;4.75;4.35;;;26.80;99.90;;;;;;5006110;28;20203;-41
2023/08/14 17:52:10;;;;;;;5.63;4.65;;;26.80;99.90;;;;;;4998931;28;20176;-39
2023/08/14 17:54:36;;;;;;;4.53;4.13;;;26.70;99.90;;;;;;4988333;28;20187;-40
2023/08/14 17:57:02;;;;;;;6.22;4.28;;;26.70;99.90;;;;;;4995899;28;20242;-39
2023/08/14 17:59:27;;;;;;;4.72;4.32;;;26.70;99.90;;;;;;4997769;28;20226;-41
2023/08/14 18:01:53;;;;;;;5.10;4.15;;;26.70;99.90;;;;;;4998368;28;20187;-41
2023/08/14 18:04:19;;;;;;;5.95;4.75;;;26.60;99.90;;;;;;4988653;28;20298;-40
2023/08/14 18:06:45;;;;;;;5.28;4.28;;;26.60;99.90;;;;;;4980383;28;20213;-41
2023/08/14 18:09:20;;;;;;;4.95;3.92;;;26.50;99.90;;;;;;4997525;28;20207;-40
2023/08/14 18:11:47;;;;;;;5.13;3.75;;;26.40;99.90;;;;;;4997568;28;20253;-40
2023/08/14 18:14:14;;;;;;;4.40;4.00;;;26.40;99.90;;;;;;4999421;28;20186;-41
2023/08/14 18:16:45;;;;;;;5.93;3.97;;;26.40;99.90;;;;;;5007874;28;20237;-41
2023/08/14 18:19:14;;;;;;;3.97;3.67;;;26.30;99.90;;;;;;4976340;28;20207;-40
2023/08/14 18:21:40;;;;;;;4.10;3.75;;;26.30;99.90;;;;;;4999603;28;20201;-41
2023/08/14 18:24:09;;;;;;;4.32;4.03;;;26.30;99.90;;;;;;4999990;28;20858;-40
2023/08/14 18:26:35;;;;;;;4.07;3.78;;;26.20;99.90;;;;;;5000374;28;20183;-39
2023/08/14 18:29:04;;;;;;;4.95;3.70;;;26.20;99.90;;;;;;4972259;28;20226;-41
2023/08/14 18:31:31;;;;;;;6.70;4.05;;;26.10;99.90;;;;;;4991063;28;20183;-41
2023/08/14 18:33:57;;;;;;;5.95;3.75;;;26.00;99.90;;;;;;4998387;28;20226;-39
2023/08/14 18:36:26;;;;;;;4.00;3.60;;;25.90;99.90;;;;;;4993411;28;20191;-40
2023/08/14 18:38:53;;;;;;;5.18;3.50;;;25.80;99.90;;;;;;5000589;28;20202;-41
2023/08/14 18:41:21;;;;;;;4.43;3.53;;;25.70;99.90;;;;;;4969352;28;20188;-40
2023/08/14 18:43:48;;;;;;;6.05;4.35;;;25.60;99.90;;;;;;4978307;28;20233;-40
2023/08/14 18:46:15;;;;;;;4.60;3.95;;;25.60;99.90;;;;;;4977525;28;20184;-41
2023/08/14 18:48:42;;;;;;;6.43;4.35;;;25.60;99.90;;;;;;4994616;28;20199;-39
2023/08/14 18:51:10;;;;;;;6.95;4.00;;;25.50;99.90;;;;;;5000736;28;20185;-38
2023/08/14 18:53:37;;;;;;;4.95;4.30;;;25.40;99.90;;;;;;4979607;28;20185;-39
2023/08/14 18:56:04;;;;;;;5.53;4.13;;;25.40;99.90;;;;;;5023787;28;20179;-40
2023/08/14 18:58:37;;;;;;;5.60;4.07;;;25.40;99.90;;;;;;4984169;28;20278;-41
2023/08/14 19:01:04;;;;;;;5.63;4.40;;;25.40;99.90;;;;;;4996144;28;20180;-41
2023/08/14 19:03:31;;;;;;;4.72;4.20;;;25.40;99.90;;;;;;5000328;28;20257;-41
2023/08/14 19:05:59;;;;;;;7.57;4.55;;;25.30;99.90;;;;;;4981089;28;20201;-41
2023/08/14 19:08:26;;;;;;;4.93;4.10;;;25.30;99.90;;;;;;4981319;28;20203;-40
2023/08/14 19:10:52;;;;;;;5.05;4.30;;;25.20;99.90;;;;;;4979313;28;20191;-42
2023/08/14 19:13:21;;;;;;;7.25;3.97;;;25.10;99.90;;;;;;4997230;28;20274;-40
2023/08/14 19:15:49;;;;;;;6.72;4.10;;;25.00;99.90;;;;;;5000204;28;20190;-40
2023/08/14 19:18:16;;;;;;;5.35;4.40;;;25.00;99.90;;;;;;4977866;28;20238;-41
2023/08/14 19:20:43;;;;;;;4.68;4.22;;;24.90;99.90;;;;;;4970331;28;20190;-41
2023/08/14 19:23:10;;;;;;;4.78;4.13;;;24.80;99.90;;;;;;4998385;28;20214;-40
2023/08/14 19:25:43;;;;;;;4.93;3.78;;;24.70;99.90;;;;;;4999056;28;20182;-42
2023/08/14 19:28:13;;;;;;;4.03;3.60;;;24.60;99.90;;;;;;4999120;28;20246;-40
2023/08/14 19:30:39;;;;;;;5.18;4.30;;;24.50;99.90;;;;;;4986487;28;20179;-41
2023/08/14 19:33:08;;;;;;;4.10;3.80;;;24.50;99.90;;;;;;4996482;28;20184;-39
2023/08/14 19:35:35;;;;;;;4.28;3.88;;;24.30;99.90;;;;;;5002409;28;20187;-39
2023/08/14 19:38:02;;;;;;;4.32;3.92;;;24.30;99.90;;;;;;4982652;28;20188;-41
2023/08/14 19:40:31;;;;;;;4.90;3.80;;;24.30;99.90;;;;;;4994257;28;20179;-41
2023/08/14 19:42:58;;;;;;;5.38;4.18;;;24.20;99.90;;;;;;4980566;28;20171;-40
2023/08/14 19:45:25;;;;;;;4.72;4.32;;;24.20;99.90;;;;;;4974603;28;20188;-40
2023/08/14 19:47:52;;;;;;;5.07;4.20;;;24.20;99.90;;;;;;5009622;28;20172;-41
2023/08/14 19:50:21;;;;;;;4.40;4.00;;;24.10;99.90;;;;;;4996516;28;20266;-39
2023/08/14 19:52:52;;;;;;;5.05;4.15;;;24.10;99.90;;;;;;4997789;28;20196;-41
2023/08/14 19:55:19;;;;;;;6.68;4.60;;;24.10;99.90;;;;;;5013393;28;20233;-41
2023/08/14 19:57:46;;;;;;;5.35;4.20;;;24.00;99.90;;;;;;4988758;28;20180;-39
2023/08/14 20:00:12;;;;;;;6.50;4.38;;;24.00;99.90;;;;;;5001507;28;20191;-41
2023/08/14 20:02:38;;;;;;;5.68;4.38;;;23.90;99.90;;;;;;4999433;28;20183;-41
2023/08/14 20:05:05;;;;;;;6.93;4.43;;;23.80;99.90;;;;;;4990324;28;20203;-41
2023/08/14 20:07:33;;;;;;;7.18;4.80;;;23.80;99.90;;;;;;5000320;28;20183;-41
2023/08/14 20:10:01;;;;;;;5.35;4.40;;;23.80;99.90;;;;;;5001080;28;20218;-41
2023/08/14 20:12:31;;;;;;;5.45;4.70;;;23.80;99.90;;;;;;5006504;28;20183;-40
2023/08/14 20:14:57;;;;;;;4.82;4.40;;;23.70;99.90;;;;;;4984919;28;20184;-39
2023/08/14 20:17:24;;;;;;;10.48;4.68;;;23.70;99.90;;;;;;5002212;28;20183;-40
2023/08/14 20:19:50;;;;;;;5.03;4.60;;;23.70;99.90;;;;;;5012091;28;20199;-39
2023/08/14 20:22:16;;;;;;;5.45;4.95;;;23.60;99.90;;;;;;4983033;28;20191;-40
2023/08/14 20:24:42;;;;;;;4.85;4.45;;;23.60;99.90;;;;;;4975877;28;20207;-39
2023/08/14 20:27:07;;;;;;;9.10;5.30;;;23.50;99.90;;;;;;5001029;28;20171;-41
2023/08/14 20:29:33;;;;;;;6.95;4.60;;;23.50;99.90;;;;;;4998222;28;20210;-41
2023/08/14 20:31:59;;;;;;;4.90;4.50;;;23.40;99.90;;;;;;5003509;28;20183;-39
2023/08/14 20:34:30;;;;;;;7.32;4.88;;;23.30;99.90;;;;;;4995033;28;20269;-41
2023/08/14 20:36:57;;;;;;;4.93;4.22;;;23.30;99.90;;;;;;4987605;28;20188;-40
2023/08/14 20:39:22;;;;;;;5.30;4.75;;;23.30;99.90;;;;;;5012990;28;20211;-40
2023/08/14 20:41:48;;;;;;;5.28;4.78;;;23.30;99.90;;;;;;5000174;28;20191;-40
2023/08/14 20:44:14;;;;;;;5.40;4.93;;;23.20;99.90;;;;;;4998143;28;20208;-39
2023/08/14 20:46:40;;;;;;;5.97;4.57;;;23.20;99.90;;;;;;5000769;28;20179;-40
2023/08/14 20:49:06;;;;;;;6.50;4.97;;;23.30;99.90;;;;;;4993245;28;20285;-40
2023/08/14 20:51:32;;;;;;;5.45;4.95;;;23.20;99.90;;;;;;4990302;28;20180;-40
2023/08/14 20:53:57;;;;;;;6.22;4.60;;;23.20;99.90;;;;;;5001227;28;20196;-40
2023/08/14 20:56:23;;;;;;;5.90;4.60;;;23.20;99.90;;;;;;4976704;28;20270;-39
2023/08/14 20:58:49;;;;;;;5.50;4.85;;;23.20;99.90;;;;;;5009293;23;20293;-34
2023/08/14 21:01:15;;;;;;;4.93;4.53;;;23.10;99.90;;;;;;4996972;28;20266;-33
2023/08/14 21:03:41;;;;;;;5.57;5.05;;;23.00;99.90;;;;;;4967041;28;20199;-34
2023/08/14 21:06:07;;;;;;;6.07;5.18;;;23.00;99.90;;;;;;4964988;28;20191;-34
2023/08/14 21:08:36;;;;;;;5.43;4.93;;;22.90;99.90;;;;;;4964601;28;20223;-33
2023/08/14 21:11:02;;;;;;;6.38;4.75;;;22.90;99.90;;;;;;4987338;28;20746;-34
2023/08/14 21:13:28;;;;;;;7.82;5.47;;;22.90;99.90;;;;;;5002001;28;20194;-33
2023/08/14 21:15:55;;;;;;;5.28;4.78;;;22.90;99.90;;;;;;5003185;28;20183;-34
2023/08/14 21:18:21;;;;;;;5.25;4.72;;;22.80;99.90;;;;;;4984105;28;20180;-33
2023/08/14 21:20:47;;;;;;;7.53;5.07;;;22.90;99.90;;;;;;4981227;28;20272;-34
2023/08/14 21:23:14;;;;;;;5.18;4.68;;;22.90;99.90;;;;;;4976427;28;20273;-34
2023/08/14 21:25:43;;;;;;;7.07;4.80;;;22.80;99.90;;;;;;4975021;28;20188;-33
2023/08/14 21:28:11;;;;;;;5.93;4.85;;;22.80;99.90;;;;;;4976382;28;20184;-34
2023/08/14 21:30:38;;;;;;;5.78;5.28;;;22.80;99.90;;;;;;5004690;28;20182;-34
2023/08/14 21:33:05;;;;;;;5.65;5.05;;;22.80;99.90;;;;;;5008077;28;20725;-34
2023/08/14 21:35:32;;;;;;;6.28;5.68;;;22.80;99.90;;;;;;4979436;28;20234;-33